sensor_id;sensor_type;location;lat;lon;timestamp;P1;durP1;ratioP1;P2;durP2;ratioP2
15383;SDS011;7790;53.022;12.968;2023-07-13T00:01:17;2.90;;;2.07;;
15383;SDS011;7790;53.022;12.968;2023-07-13T00:05:18;5.03;;;2.27;;
15383;SDS011;7790;53.022;12.968;2023-07-13T00:09:19;2.40;;;2.07;;
15383;SDS011;7790;53.022;12.968;2023-07-13T00:13:20;2.40;;;2.20;;
15383;SDS011;7790;53.022;12.968;2023-07-13T00:17:21;3.40;;;2.47;;
15383;SDS011;7790;53.022;12.968;2023-07-13T00:21:22;2.87;;;2.47;;
15383;SDS011;7790;53.022;12.968;2023-07-13T00:25:25;2.60;;;2.10;;
15383;SDS011;7790;53.022;12.968;2023-07-13T00:29:28;2.37;;;2.17;;
15383;SDS011;7790;53.022;12.968;2023-07-13T00:33:30;2.97;;;2.60;;
15383;SDS011;7790;53.022;12.968;2023-07-13T00:37:33;5.10;;;2.40;;
15383;SDS011;7790;53.022;12.968;2023-07-13T00:41:35;3.03;;;2.23;;
15383;SDS011;7790;53.022;12.968;2023-07-13T00:49:44;3.23;;;2.50;;
15383;SDS011;7790;53.022;12.968;2023-07-13T00:53:45;4.67;;;2.60;;
15383;SDS011;7790;53.022;12.968;2023-07-13T00:57:46;4.73;;;2.57;;
15383;SDS011;7790;53.022;12.968;2023-07-13T01:01:48;3.30;;;2.60;;
15383;SDS011;7790;53.022;12.968;2023-07-13T01:05:49;4.60;;;2.43;;
15383;SDS011;7790;53.022;12.968;2023-07-13T01:09:51;3.53;;;2.20;;
15383;SDS011;7790;53.022;12.968;2023-07-13T01:13:54;2.57;;;2.37;;
15383;SDS011;7790;53.022;12.968;2023-07-13T01:17:54;2.90;;;2.53;;
15383;SDS011;7790;53.022;12.968;2023-07-13T01:21:55;4.93;;;2.83;;
15383;SDS011;7790;53.022;12.968;2023-07-13T01:25:56;4.43;;;2.60;;
15383;SDS011;7790;53.022;12.968;2023-07-13T01:29:58;3.87;;;2.60;;
15383;SDS011;7790;53.022;12.968;2023-07-13T01:34:03;2.60;;;2.40;;
15383;SDS011;7790;53.022;12.968;2023-07-13T01:38:05;3.20;;;2.50;;
15383;SDS011;7790;53.022;12.968;2023-07-13T01:42:06;3.97;;;2.60;;
15383;SDS011;7790;53.022;12.968;2023-07-13T01:46:08;2.77;;;2.50;;
15383;SDS011;7790;53.022;12.968;2023-07-13T01:50:09;3.50;;;2.40;;
15383;SDS011;7790;53.022;12.968;2023-07-13T01:54:10;2.60;;;2.40;;
15383;SDS011;7790;53.022;12.968;2023-07-13T01:58:11;4.27;;;2.40;;
15383;SDS011;7790;53.022;12.968;2023-07-13T02:02:13;3.10;;;2.80;;
15383;SDS011;7790;53.022;12.968;2023-07-13T02:06:14;3.53;;;2.70;;
15383;SDS011;7790;53.022;12.968;2023-07-13T02:10:15;3.30;;;2.40;;
15383;SDS011;7790;53.022;12.968;2023-07-13T02:14:16;4.43;;;2.77;;
15383;SDS011;7790;53.022;12.968;2023-07-13T02:18:17;3.40;;;2.30;;
15383;SDS011;7790;53.022;12.968;2023-07-13T02:22:18;2.50;;;2.30;;
15383;SDS011;7790;53.022;12.968;2023-07-13T02:26:19;2.90;;;2.40;;
15383;SDS011;7790;53.022;12.968;2023-07-13T02:30:21;3.20;;;2.23;;
15383;SDS011;7790;53.022;12.968;2023-07-13T02:34:29;3.03;;;2.73;;
15383;SDS011;7790;53.022;12.968;2023-07-13T02:38:31;2.67;;;2.47;;
15383;SDS011;7790;53.022;12.968;2023-07-13T02:42:36;2.77;;;2.43;;
15383;SDS011;7790;53.022;12.968;2023-07-13T02:46:37;2.57;;;2.07;;
15383;SDS011;7790;53.022;12.968;2023-07-13T02:50:38;2.63;;;2.43;;
15383;SDS011;7790;53.022;12.968;2023-07-13T02:54:39;5.17;;;2.60;;
15383;SDS011;7790;53.022;12.968;2023-07-13T02:58:40;3.50;;;2.50;;
15383;SDS011;7790;53.022;12.968;2023-07-13T03:02:40;4.03;;;2.40;;
15383;SDS011;7790;53.022;12.968;2023-07-13T03:06:41;4.03;;;2.50;;
15383;SDS011;7790;53.022;12.968;2023-07-13T03:10:43;3.40;;;2.33;;
15383;SDS011;7790;53.022;12.968;2023-07-13T03:14:45;2.63;;;2.27;;
15383;SDS011;7790;53.022;12.968;2023-07-13T03:18:47;2.43;;;2.20;;
15383;SDS011;7790;53.022;12.968;2023-07-13T03:22:48;3.77;;;2.53;;
15383;SDS011;7790;53.022;12.968;2023-07-13T03:26:51;3.50;;;2.30;;
15383;SDS011;7790;53.022;12.968;2023-07-13T03:31:12;2.57;;;2.20;;
15383;SDS011;7790;53.022;12.968;2023-07-13T03:35:16;2.40;;;2.20;;
15383;SDS011;7790;53.022;12.968;2023-07-13T03:39:18;2.07;;;1.97;;
15383;SDS011;7790;53.022;12.968;2023-07-13T03:43:26;2.37;;;2.17;;
15383;SDS011;7790;53.022;12.968;2023-07-13T03:47:27;7.27;;;2.40;;
15383;SDS011;7790;53.022;12.968;2023-07-13T03:51:29;3.27;;;2.37;;
15383;SDS011;7790;53.022;12.968;2023-07-13T03:55:30;4.07;;;2.33;;
15383;SDS011;7790;53.022;12.968;2023-07-13T03:59:31;4.30;;;2.30;;
15383;SDS011;7790;53.022;12.968;2023-07-13T04:03:32;4.23;;;2.40;;
15383;SDS011;7790;53.022;12.968;2023-07-13T04:07:34;2.40;;;2.20;;
15383;SDS011;7790;53.022;12.968;2023-07-13T04:11:35;2.20;;;2.00;;
15383;SDS011;7790;53.022;12.968;2023-07-13T04:15:36;3.67;;;2.33;;
15383;SDS011;7790;53.022;12.968;2023-07-13T04:19:38;3.00;;;2.53;;
15383;SDS011;7790;53.022;12.968;2023-07-13T04:23:39;2.67;;;2.43;;
15383;SDS011;7790;53.022;12.968;2023-07-13T04:27:40;2.57;;;2.37;;
15383;SDS011;7790;53.022;12.968;2023-07-13T04:31:41;3.10;;;2.20;;
15383;SDS011;7790;53.022;12.968;2023-07-13T04:35:43;2.63;;;2.40;;
15383;SDS011;7790;53.022;12.968;2023-07-13T04:39:44;3.00;;;2.50;;
15383;SDS011;7790;53.022;12.968;2023-07-13T04:43:45;3.00;;;2.43;;
15383;SDS011;7790;53.022;12.968;2023-07-13T04:47:45;2.40;;;2.20;;
15383;SDS011;7790;53.022;12.968;2023-07-13T04:51:46;2.93;;;2.57;;
15383;SDS011;7790;53.022;12.968;2023-07-13T04:55:47;2.93;;;2.20;;
15383;SDS011;7790;53.022;12.968;2023-07-13T04:59:48;2.33;;;2.10;;
15383;SDS011;7790;53.022;12.968;2023-07-13T05:03:49;2.47;;;2.10;;
15383;SDS011;7790;53.022;12.968;2023-07-13T05:07:50;3.93;;;1.97;;
15383;SDS011;7790;53.022;12.968;2023-07-13T05:11:51;4.23;;;2.20;;
15383;SDS011;7790;53.022;12.968;2023-07-13T05:15:56;3.53;;;2.10;;
15383;SDS011;7790;53.022;12.968;2023-07-13T05:19:58;3.97;;;1.87;;
15383;SDS011;7790;53.022;12.968;2023-07-13T05:23:58;2.67;;;2.00;;
15383;SDS011;7790;53.022;12.968;2023-07-13T05:27:59;2.17;;;1.90;;
15383;SDS011;7790;53.022;12.968;2023-07-13T05:32:00;2.53;;;2.10;;
15383;SDS011;7790;53.022;12.968;2023-07-13T05:36:01;3.07;;;2.00;;
15383;SDS011;7790;53.022;12.968;2023-07-13T05:40:02;2.67;;;1.90;;
15383;SDS011;7790;53.022;12.968;2023-07-13T05:44:04;3.70;;;2.00;;
15383;SDS011;7790;53.022;12.968;2023-07-13T05:48:05;2.57;;;1.60;;
15383;SDS011;7790;53.022;12.968;2023-07-13T05:52:06;2.90;;;2.03;;
15383;SDS011;7790;53.022;12.968;2023-07-13T05:56:07;3.83;;;2.33;;
15383;SDS011;7790;53.022;12.968;2023-07-13T06:00:08;2.73;;;1.87;;
15383;SDS011;7790;53.022;12.968;2023-07-13T06:04:12;4.17;;;1.93;;
15383;SDS011;7790;53.022;12.968;2023-07-13T06:08:13;2.17;;;1.80;;
15383;SDS011;7790;53.022;12.968;2023-07-13T06:12:13;3.30;;;1.80;;
15383;SDS011;7790;53.022;12.968;2023-07-13T06:16:14;3.33;;;1.97;;
15383;SDS011;7790;53.022;12.968;2023-07-13T06:20:16;1.90;;;1.70;;
15383;SDS011;7790;53.022;12.968;2023-07-13T06:24:17;5.87;;;1.87;;
15383;SDS011;7790;53.022;12.968;2023-07-13T06:28:18;3.90;;;1.67;;
15383;SDS011;7790;53.022;12.968;2023-07-13T06:32:19;3.23;;;1.80;;
15383;SDS011;7790;53.022;12.968;2023-07-13T06:36:20;2.20;;;1.83;;
15383;SDS011;7790;53.022;12.968;2023-07-13T06:40:21;2.83;;;1.80;;
15383;SDS011;7790;53.022;12.968;2023-07-13T06:44:22;3.13;;;2.03;;
15383;SDS011;7790;53.022;12.968;2023-07-13T06:48:23;3.83;;;1.83;;
15383;SDS011;7790;53.022;12.968;2023-07-13T06:52:24;2.97;;;1.80;;
15383;SDS011;7790;53.022;12.968;2023-07-13T06:56:25;1.70;;;1.50;;
15383;SDS011;7790;53.022;12.968;2023-07-13T07:00:25;3.17;;;1.70;;
15383;SDS011;7790;53.022;12.968;2023-07-13T07:04:26;2.50;;;1.70;;
15383;SDS011;7790;53.022;12.968;2023-07-13T07:08:27;2.67;;;1.70;;
15383;SDS011;7790;53.022;12.968;2023-07-13T07:12:28;3.20;;;1.67;;
15383;SDS011;7790;53.022;12.968;2023-07-13T07:16:29;2.73;;;1.80;;
15383;SDS011;7790;53.022;12.968;2023-07-13T07:20:30;3.43;;;1.80;;
15383;SDS011;7790;53.022;12.968;2023-07-13T07:24:33;6.00;;;1.80;;
15383;SDS011;7790;53.022;12.968;2023-07-13T07:28:34;3.43;;;1.47;;
15383;SDS011;7790;53.022;12.968;2023-07-13T07:32:35;2.83;;;1.80;;
15383;SDS011;7790;53.022;12.968;2023-07-13T07:36:36;7.37;;;1.60;;
15383;SDS011;7790;53.022;12.968;2023-07-13T07:40:40;4.30;;;1.83;;
15383;SDS011;7790;53.022;12.968;2023-07-13T07:44:41;2.87;;;1.57;;
15383;SDS011;7790;53.022;12.968;2023-07-13T07:48:42;1.73;;;1.47;;
15383;SDS011;7790;53.022;12.968;2023-07-13T07:52:43;2.60;;;1.37;;
15383;SDS011;7790;53.022;12.968;2023-07-13T07:56:44;2.77;;;1.40;;
15383;SDS011;7790;53.022;12.968;2023-07-13T08:00:45;3.17;;;1.50;;
15383;SDS011;7790;53.022;12.968;2023-07-13T08:04:46;1.80;;;1.30;;
15383;SDS011;7790;53.022;12.968;2023-07-13T08:08:46;2.23;;;1.40;;
15383;SDS011;7790;53.022;12.968;2023-07-13T08:12:48;3.37;;;1.37;;
15383;SDS011;7790;53.022;12.968;2023-07-13T08:16:48;2.27;;;1.20;;
15383;SDS011;7790;53.022;12.968;2023-07-13T08:20:50;4.27;;;1.53;;
15383;SDS011;7790;53.022;12.968;2023-07-13T08:24:50;1.90;;;1.10;;
15383;SDS011;7790;53.022;12.968;2023-07-13T08:28:56;1.30;;;1.17;;
15383;SDS011;7790;53.022;12.968;2023-07-13T08:32:57;3.20;;;1.43;;
15383;SDS011;7790;53.022;12.968;2023-07-13T08:36:57;2.37;;;1.30;;
15383;SDS011;7790;53.022;12.968;2023-07-13T08:40:58;3.30;;;1.30;;
15383;SDS011;7790;53.022;12.968;2023-07-13T08:45:04;3.03;;;1.30;;
15383;SDS011;7790;53.022;12.968;2023-07-13T08:49:17;1.87;;;1.17;;
15383;SDS011;7790;53.022;12.968;2023-07-13T08:53:23;4.87;;;1.17;;
15383;SDS011;7790;53.022;12.968;2023-07-13T08:57:31;8.50;;;2.10;;
15383;SDS011;7790;53.022;12.968;2023-07-13T09:01:46;6.60;;;2.90;;
15383;SDS011;7790;53.022;12.968;2023-07-13T09:06:00;8.17;;;2.67;;
15383;SDS011;7790;53.022;12.968;2023-07-13T09:10:18;3.87;;;2.10;;
15383;SDS011;7790;53.022;12.968;2023-07-13T09:18:46;1.60;;;1.20;;
15383;SDS011;7790;53.022;12.968;2023-07-13T09:22:49;2.20;;;1.23;;
15383;SDS011;7790;53.022;12.968;2023-07-13T09:26:51;2.83;;;1.47;;
15383;SDS011;7790;53.022;12.968;2023-07-13T09:31:05;2.30;;;1.20;;
15383;SDS011;7790;53.022;12.968;2023-07-13T09:35:23;2.70;;;1.37;;
15383;SDS011;7790;53.022;12.968;2023-07-13T09:39:39;6.60;;;1.63;;
15383;SDS011;7790;53.022;12.968;2023-07-13T09:48:13;3.37;;;1.40;;
15383;SDS011;7790;53.022;12.968;2023-07-13T09:52:15;1.40;;;1.20;;
15383;SDS011;7790;53.022;12.968;2023-07-13T09:56:34;4.20;;;1.60;;
15383;SDS011;7790;53.022;12.968;2023-07-13T10:00:35;2.33;;;1.20;;
15383;SDS011;7790;53.022;12.968;2023-07-13T10:04:36;3.37;;;1.10;;
15383;SDS011;7790;53.022;12.968;2023-07-13T10:08:37;2.03;;;1.30;;
15383;SDS011;7790;53.022;12.968;2023-07-13T10:12:38;2.97;;;1.70;;
15383;SDS011;7790;53.022;12.968;2023-07-13T10:16:39;5.33;;;1.57;;
15383;SDS011;7790;53.022;12.968;2023-07-13T10:20:43;2.93;;;1.43;;
15383;SDS011;7790;53.022;12.968;2023-07-13T10:24:44;3.13;;;1.60;;
15383;SDS011;7790;53.022;12.968;2023-07-13T10:28:46;2.40;;;1.50;;
15383;SDS011;7790;53.022;12.968;2023-07-13T10:32:51;2.57;;;1.70;;
15383;SDS011;7790;53.022;12.968;2023-07-13T10:36:52;3.57;;;1.53;;
15383;SDS011;7790;53.022;12.968;2023-07-13T10:41:02;3.13;;;1.70;;
15383;SDS011;7790;53.022;12.968;2023-07-13T10:45:15;3.77;;;1.60;;
15383;SDS011;7790;53.022;12.968;2023-07-13T10:49:18;2.10;;;1.50;;
15383;SDS011;7790;53.022;12.968;2023-07-13T10:57:32;2.27;;;1.43;;
15383;SDS011;7790;53.022;12.968;2023-07-13T11:01:50;5.03;;;2.00;;
15383;SDS011;7790;53.022;12.968;2023-07-13T11:10:49;3.57;;;1.87;;
15383;SDS011;7790;53.022;12.968;2023-07-13T11:23:08;8.07;;;2.13;;
15383;SDS011;7790;53.022;12.968;2023-07-13T11:27:26;3.87;;;1.80;;
15383;SDS011;7790;53.022;12.968;2023-07-13T11:31:43;4.37;;;1.87;;
15383;SDS011;7790;53.022;12.968;2023-07-13T11:35:53;4.97;;;1.90;;
15383;SDS011;7790;53.022;12.968;2023-07-13T11:40:03;4.23;;;1.67;;
15383;SDS011;7790;53.022;12.968;2023-07-13T11:44:14;5.47;;;2.17;;
15383;SDS011;7790;53.022;12.968;2023-07-13T11:48:27;3.97;;;1.80;;
15383;SDS011;7790;53.022;12.968;2023-07-13T11:52:34;4.73;;;2.20;;
15383;SDS011;7790;53.022;12.968;2023-07-13T11:56:37;3.97;;;2.10;;
15383;SDS011;7790;53.022;12.968;2023-07-13T12:00:38;5.60;;;2.20;;
15383;SDS011;7790;53.022;12.968;2023-07-13T12:04:41;5.97;;;2.13;;
15383;SDS011;7790;53.022;12.968;2023-07-13T12:08:43;2.83;;;1.73;;
15383;SDS011;7790;53.022;12.968;2023-07-13T12:12:48;3.53;;;1.90;;
15383;SDS011;7790;53.022;12.968;2023-07-13T12:16:54;3.93;;;2.03;;
15383;SDS011;7790;53.022;12.968;2023-07-13T12:20:57;6.33;;;2.40;;
15383;SDS011;7790;53.022;12.968;2023-07-13T12:24:59;3.50;;;2.03;;
15383;SDS011;7790;53.022;12.968;2023-07-13T12:29:01;7.50;;;2.60;;
15383;SDS011;7790;53.022;12.968;2023-07-13T12:33:06;5.57;;;2.47;;
15383;SDS011;7790;53.022;12.968;2023-07-13T12:37:11;4.43;;;2.30;;
15383;SDS011;7790;53.022;12.968;2023-07-13T12:41:15;3.20;;;2.00;;
15383;SDS011;7790;53.022;12.968;2023-07-13T12:45:25;4.37;;;2.37;;
15383;SDS011;7790;53.022;12.968;2023-07-13T12:49:29;5.53;;;2.20;;
15383;SDS011;7790;53.022;12.968;2023-07-13T12:53:34;4.83;;;2.17;;
15383;SDS011;7790;53.022;12.968;2023-07-13T12:57:41;6.13;;;2.67;;
15383;SDS011;7790;53.022;12.968;2023-07-13T13:01:56;2.57;;;2.00;;
15383;SDS011;7790;53.022;12.968;2023-07-13T13:06:01;3.80;;;1.97;;
15383;SDS011;7790;53.022;12.968;2023-07-13T13:10:18;3.97;;;2.00;;
15383;SDS011;7790;53.022;12.968;2023-07-13T13:14:21;3.63;;;2.20;;
15383;SDS011;7790;53.022;12.968;2023-07-13T13:18:22;3.53;;;2.23;;
15383;SDS011;7790;53.022;12.968;2023-07-13T13:22:24;3.73;;;2.20;;
15383;SDS011;7790;53.022;12.968;2023-07-13T13:26:24;4.43;;;1.80;;
15383;SDS011;7790;53.022;12.968;2023-07-13T13:30:26;10.63;;;2.33;;
15383;SDS011;7790;53.022;12.968;2023-07-13T13:34:27;5.43;;;2.33;;
15383;SDS011;7790;53.022;12.968;2023-07-13T13:38:28;6.37;;;1.97;;
15383;SDS011;7790;53.022;12.968;2023-07-13T13:42:28;2.27;;;1.60;;
15383;SDS011;7790;53.022;12.968;2023-07-13T13:46:29;1.87;;;1.30;;
15383;SDS011;7790;53.022;12.968;2023-07-13T13:50:30;3.17;;;1.83;;
15383;SDS011;7790;53.022;12.968;2023-07-13T13:54:31;2.23;;;1.53;;
15383;SDS011;7790;53.022;12.968;2023-07-13T13:58:32;8.77;;;2.00;;
15383;SDS011;7790;53.022;12.968;2023-07-13T14:02:33;3.80;;;1.70;;
15383;SDS011;7790;53.022;12.968;2023-07-13T14:06:34;5.17;;;1.50;;
15383;SDS011;7790;53.022;12.968;2023-07-13T14:10:35;2.60;;;1.70;;
15383;SDS011;7790;53.022;12.968;2023-07-13T14:14:36;3.50;;;1.50;;
15383;SDS011;7790;53.022;12.968;2023-07-13T14:18:37;2.40;;;1.37;;
15383;SDS011;7790;53.022;12.968;2023-07-13T14:22:38;4.27;;;1.23;;
15383;SDS011;7790;53.022;12.968;2023-07-13T14:26:40;2.90;;;1.43;;
15383;SDS011;7790;53.022;12.968;2023-07-13T14:30:42;3.50;;;1.33;;
15383;SDS011;7790;53.022;12.968;2023-07-13T14:34:43;4.47;;;1.30;;
15383;SDS011;7790;53.022;12.968;2023-07-13T14:38:44;2.57;;;1.30;;
15383;SDS011;7790;53.022;12.968;2023-07-13T14:42:45;4.37;;;1.50;;
15383;SDS011;7790;53.022;12.968;2023-07-13T14:46:47;4.20;;;1.33;;
15383;SDS011;7790;53.022;12.968;2023-07-13T14:50:55;5.20;;;1.77;;
15383;SDS011;7790;53.022;12.968;2023-07-13T14:54:57;4.03;;;1.63;;
15383;SDS011;7790;53.022;12.968;2023-07-13T14:58:58;3.90;;;1.50;;
15383;SDS011;7790;53.022;12.968;2023-07-13T15:02:59;4.83;;;1.50;;
15383;SDS011;7790;53.022;12.968;2023-07-13T15:07:01;2.87;;;1.40;;
15383;SDS011;7790;53.022;12.968;2023-07-13T15:11:05;2.87;;;1.40;;
15383;SDS011;7790;53.022;12.968;2023-07-13T15:15:07;2.90;;;1.60;;
15383;SDS011;7790;53.022;12.968;2023-07-13T15:19:09;2.90;;;1.20;;
15383;SDS011;7790;53.022;12.968;2023-07-13T15:23:11;1.70;;;1.20;;
15383;SDS011;7790;53.022;12.968;2023-07-13T15:27:13;2.13;;;1.60;;
15383;SDS011;7790;53.022;12.968;2023-07-13T15:35:24;2.87;;;1.33;;
15383;SDS011;7790;53.022;12.968;2023-07-13T15:39:26;1.77;;;1.27;;
15383;SDS011;7790;53.022;12.968;2023-07-13T15:43:28;3.27;;;1.67;;
15383;SDS011;7790;53.022;12.968;2023-07-13T15:47:33;2.63;;;1.40;;
15383;SDS011;7790;53.022;12.968;2023-07-13T15:51:34;1.20;;;1.00;;
15383;SDS011;7790;53.022;12.968;2023-07-13T15:55:38;1.17;;;1.00;;
15383;SDS011;7790;53.022;12.968;2023-07-13T15:59:43;1.70;;;1.40;;
15383;SDS011;7790;53.022;12.968;2023-07-13T16:03:45;0.97;;;0.87;;
15383;SDS011;7790;53.022;12.968;2023-07-13T16:07:47;2.17;;;1.20;;
15383;SDS011;7790;53.022;12.968;2023-07-13T16:11:50;4.50;;;1.30;;
15383;SDS011;7790;53.022;12.968;2023-07-13T16:15:52;7.27;;;1.60;;
15383;SDS011;7790;53.022;12.968;2023-07-13T16:19:56;8.67;;;1.53;;
15383;SDS011;7790;53.022;12.968;2023-07-13T16:23:57;2.77;;;1.20;;
15383;SDS011;7790;53.022;12.968;2023-07-13T16:27:59;3.63;;;1.30;;
15383;SDS011;7790;53.022;12.968;2023-07-13T16:32:05;4.17;;;1.33;;
15383;SDS011;7790;53.022;12.968;2023-07-13T16:36:11;3.93;;;1.20;;
15383;SDS011;7790;53.022;12.968;2023-07-13T16:40:23;4.27;;;1.70;;
15383;SDS011;7790;53.022;12.968;2023-07-13T16:44:26;2.37;;;1.40;;
15383;SDS011;7790;53.022;12.968;2023-07-13T16:48:29;5.20;;;1.53;;
15383;SDS011;7790;53.022;12.968;2023-07-13T16:52:30;3.20;;;1.53;;
15383;SDS011;7790;53.022;12.968;2023-07-13T16:56:31;4.17;;;1.63;;
15383;SDS011;7790;53.022;12.968;2023-07-13T17:00:35;2.57;;;1.23;;
15383;SDS011;7790;53.022;12.968;2023-07-13T17:04:37;5.40;;;1.77;;
15383;SDS011;7790;53.022;12.968;2023-07-13T17:08:38;2.30;;;1.50;;
15383;SDS011;7790;53.022;12.968;2023-07-13T17:12:39;1.73;;;1.50;;
15383;SDS011;7790;53.022;12.968;2023-07-13T17:16:40;3.27;;;1.57;;
15383;SDS011;7790;53.022;12.968;2023-07-13T17:20:43;1.70;;;1.37;;
15383;SDS011;7790;53.022;12.968;2023-07-13T17:24:47;8.93;;;1.80;;
15383;SDS011;7790;53.022;12.968;2023-07-13T17:28:49;1.40;;;1.30;;
15383;SDS011;7790;53.022;12.968;2023-07-13T17:32:50;2.73;;;1.77;;
15383;SDS011;7790;53.022;12.968;2023-07-13T17:36:55;8.17;;;1.70;;
15383;SDS011;7790;53.022;12.968;2023-07-13T17:40:59;1.50;;;1.40;;
15383;SDS011;7790;53.022;12.968;2023-07-13T17:45:01;3.50;;;1.50;;
15383;SDS011;7790;53.022;12.968;2023-07-13T17:49:02;1.97;;;1.37;;
15383;SDS011;7790;53.022;12.968;2023-07-13T17:53:13;1.90;;;1.73;;
15383;SDS011;7790;53.022;12.968;2023-07-13T17:57:20;4.00;;;1.70;;
15383;SDS011;7790;53.022;12.968;2023-07-13T18:01:21;2.47;;;1.57;;
15383;SDS011;7790;53.022;12.968;2023-07-13T18:05:26;3.03;;;1.70;;
15383;SDS011;7790;53.022;12.968;2023-07-13T18:09:27;2.17;;;1.80;;
15383;SDS011;7790;53.022;12.968;2023-07-13T18:13:30;2.00;;;1.77;;
15383;SDS011;7790;53.022;12.968;2023-07-13T18:17:34;2.43;;;2.00;;
15383;SDS011;7790;53.022;12.968;2023-07-13T18:21:35;1.73;;;1.60;;
15383;SDS011;7790;53.022;12.968;2023-07-13T18:25:36;2.70;;;1.87;;
15383;SDS011;7790;53.022;12.968;2023-07-13T18:29:37;3.67;;;1.87;;
15383;SDS011;7790;53.022;12.968;2023-07-13T18:33:38;2.40;;;1.87;;
15383;SDS011;7790;53.022;12.968;2023-07-13T18:37:43;4.50;;;2.53;;
15383;SDS011;7790;53.022;12.968;2023-07-13T18:41:44;2.00;;;1.90;;
15383;SDS011;7790;53.022;12.968;2023-07-13T18:45:45;3.33;;;2.50;;
15383;SDS011;7790;53.022;12.968;2023-07-13T18:49:46;2.57;;;2.17;;
15383;SDS011;7790;53.022;12.968;2023-07-13T18:53:47;2.63;;;2.20;;
15383;SDS011;7790;53.022;12.968;2023-07-13T18:57:48;2.33;;;2.13;;
15383;SDS011;7790;53.022;12.968;2023-07-13T19:01:56;2.83;;;2.20;;
15383;SDS011;7790;53.022;12.968;2023-07-13T19:05:57;2.00;;;1.90;;
15383;SDS011;7790;53.022;12.968;2023-07-13T19:09:59;5.53;;;2.70;;
15383;SDS011;7790;53.022;12.968;2023-07-13T19:14:01;7.60;;;3.50;;
15383;SDS011;7790;53.022;12.968;2023-07-13T19:18:09;4.07;;;3.30;;
15383;SDS011;7790;53.022;12.968;2023-07-13T19:22:13;5.70;;;3.20;;
15383;SDS011;7790;53.022;12.968;2023-07-13T19:26:27;3.57;;;3.03;;
15383;SDS011;7790;53.022;12.968;2023-07-13T19:30:31;4.23;;;3.10;;
15383;SDS011;7790;53.022;12.968;2023-07-13T19:34:32;2.90;;;2.70;;
15383;SDS011;7790;53.022;12.968;2023-07-13T19:38:34;2.70;;;2.30;;
15383;SDS011;7790;53.022;12.968;2023-07-13T19:42:35;4.07;;;2.47;;
15383;SDS011;7790;53.022;12.968;2023-07-13T19:46:36;2.57;;;2.37;;
15383;SDS011;7790;53.022;12.968;2023-07-13T19:50:37;2.63;;;2.43;;
15383;SDS011;7790;53.022;12.968;2023-07-13T19:54:40;3.17;;;2.80;;
15383;SDS011;7790;53.022;12.968;2023-07-13T19:58:44;3.83;;;2.63;;
15383;SDS011;7790;53.022;12.968;2023-07-13T20:02:45;3.60;;;2.83;;
15383;SDS011;7790;53.022;12.968;2023-07-13T20:06:47;3.77;;;2.80;;
15383;SDS011;7790;53.022;12.968;2023-07-13T20:10:48;2.57;;;2.37;;
15383;SDS011;7790;53.022;12.968;2023-07-13T20:14:51;2.40;;;2.30;;
15383;SDS011;7790;53.022;12.968;2023-07-13T20:18:53;3.93;;;2.73;;
15383;SDS011;7790;53.022;12.968;2023-07-13T20:22:54;2.40;;;2.20;;
15383;SDS011;7790;53.022;12.968;2023-07-13T20:26:55;2.57;;;2.37;;
15383;SDS011;7790;53.022;12.968;2023-07-13T20:30:56;4.00;;;3.10;;
15383;SDS011;7790;53.022;12.968;2023-07-13T20:34:57;3.40;;;3.10;;
15383;SDS011;7790;53.022;12.968;2023-07-13T20:38:59;2.40;;;2.23;;
15383;SDS011;7790;53.022;12.968;2023-07-13T20:43:00;2.23;;;2.13;;
15383;SDS011;7790;53.022;12.968;2023-07-13T20:47:01;1.90;;;1.80;;
15383;SDS011;7790;53.022;12.968;2023-07-13T20:51:02;1.77;;;1.63;;
15383;SDS011;7790;53.022;12.968;2023-07-13T20:55:18;1.60;;;1.50;;
15383;SDS011;7790;53.022;12.968;2023-07-13T20:59:21;1.87;;;1.77;;
15383;SDS011;7790;53.022;12.968;2023-07-13T21:03:23;1.77;;;1.67;;
15383;SDS011;7790;53.022;12.968;2023-07-13T21:07:28;2.20;;;2.10;;
15383;SDS011;7790;53.022;12.968;2023-07-13T21:11:28;2.27;;;2.17;;
15383;SDS011;7790;53.022;12.968;2023-07-13T21:15:30;2.50;;;1.60;;
15383;SDS011;7790;53.022;12.968;2023-07-13T21:19:32;1.47;;;1.37;;
15383;SDS011;7790;53.022;12.968;2023-07-13T21:23:34;4.00;;;1.43;;
15383;SDS011;7790;53.022;12.968;2023-07-13T21:27:38;1.60;;;1.50;;
15383;SDS011;7790;53.022;12.968;2023-07-13T21:31:39;2.50;;;1.60;;
15383;SDS011;7790;53.022;12.968;2023-07-13T21:35:40;2.03;;;1.93;;
15383;SDS011;7790;53.022;12.968;2023-07-13T21:39:44;2.03;;;1.93;;
15383;SDS011;7790;53.022;12.968;2023-07-13T21:43:49;3.47;;;2.07;;
15383;SDS011;7790;53.022;12.968;2023-07-13T21:47:50;2.93;;;1.87;;
15383;SDS011;7790;53.022;12.968;2023-07-13T21:51:52;1.97;;;1.60;;
15383;SDS011;7790;53.022;12.968;2023-07-13T21:55:54;4.10;;;1.90;;
15383;SDS011;7790;53.022;12.968;2023-07-13T21:59:57;4.27;;;2.20;;
15383;SDS011;7790;53.022;12.968;2023-07-13T22:03:58;2.90;;;2.37;;
15383;SDS011;7790;53.022;12.968;2023-07-13T22:07:59;2.80;;;2.37;;
15383;SDS011;7790;53.022;12.968;2023-07-13T22:12:00;2.37;;;2.00;;
15383;SDS011;7790;53.022;12.968;2023-07-13T22:16:03;2.30;;;2.10;;
15383;SDS011;7790;53.022;12.968;2023-07-13T22:20:05;2.10;;;2.00;;
15383;SDS011;7790;53.022;12.968;2023-07-13T22:24:14;3.43;;;2.40;;
15383;SDS011;7790;53.022;12.968;2023-07-13T22:28:21;2.97;;;2.23;;
15383;SDS011;7790;53.022;12.968;2023-07-13T22:32:24;2.77;;;2.23;;
15383;SDS011;7790;53.022;12.968;2023-07-13T22:36:25;2.27;;;2.03;;
15383;SDS011;7790;53.022;12.968;2023-07-13T22:40:26;4.43;;;2.50;;
15383;SDS011;7790;53.022;12.968;2023-07-13T22:44:27;3.40;;;2.50;;
15383;SDS011;7790;53.022;12.968;2023-07-13T22:48:38;2.63;;;2.17;;
15383;SDS011;7790;53.022;12.968;2023-07-13T22:52:43;2.40;;;2.20;;
15383;SDS011;7790;53.022;12.968;2023-07-13T22:56:44;3.20;;;2.50;;
15383;SDS011;7790;53.022;12.968;2023-07-13T23:00:45;3.57;;;2.50;;
15383;SDS011;7790;53.022;12.968;2023-07-13T23:04:46;5.13;;;2.43;;
15383;SDS011;7790;53.022;12.968;2023-07-13T23:08:49;4.47;;;2.60;;
15383;SDS011;7790;53.022;12.968;2023-07-13T23:12:51;2.77;;;2.57;;
15383;SDS011;7790;53.022;12.968;2023-07-13T23:16:57;2.97;;;2.20;;
15383;SDS011;7790;53.022;12.968;2023-07-13T23:20:59;3.30;;;2.37;;
15383;SDS011;7790;53.022;12.968;2023-07-13T23:25:00;2.80;;;2.37;;
15383;SDS011;7790;53.022;12.968;2023-07-13T23:29:01;4.67;;;2.60;;
15383;SDS011;7790;53.022;12.968;2023-07-13T23:33:23;2.57;;;2.37;;
15383;SDS011;7790;53.022;12.968;2023-07-13T23:37:26;2.90;;;2.20;;
15383;SDS011;7790;53.022;12.968;2023-07-13T23:41:28;4.57;;;2.87;;
15383;SDS011;7790;53.022;12.968;2023-07-13T23:45:30;3.47;;;2.53;;
15383;SDS011;7790;53.022;12.968;2023-07-13T23:49:30;2.60;;;2.40;;
15383;SDS011;7790;53.022;12.968;2023-07-13T23:53:32;5.17;;;2.53;;
15383;SDS011;7790;53.022;12.968;2023-07-13T23:57:33;4.13;;;2.70;;
